ADDS TAF Board (Experimental) INFO

IDs: Format: Expanded Condensed

Updated at: 1403 UTC 22 Nov 2014

KSAN - San Diego Intl Arpt, CA, US

Issued at 1127 UTC 22 Nov 2014
Time1351Z22/15Z22/16Z22/17Z22/18Z22/19Z22/20Z22/21Z22/22Z22/23Z23/00Z23/01Z23/02Z23/03Z
TypeOBSPRVLPRVLPRVLPRVLPRVLPRVLPRVLPRVLPRVLPRVLPRVLPRVLPRVL
VIS10>6>6>6>6>6>6>6>6>6>6>6>6>6
CIG----------------------------
CoverFEWFEWFEWFEWFEWFEWSCTSCTSCTSCTSCTSCTSCTSCT
FltCat--VFRVFRVFRVFRVFRVFRVFRVFRVFRVFRVFRVFRVFR
WX----------------------------
WDirVRBVRBVRBVRBVRBVRB260260260260260VRBVRBVRB
WSpd03333388888444
WGst----------------------------
R09/27
XWndVRBVRBVRBVRBVRBVRB-4-4-4-4-4VRBVRBVRB
HWndVRBVRBVRBVRBVRBVRB-7-7-7-7-7VRBVRBVRB
Raw TAF
KSAN 221127Z 2212/2318 VRB03KT P6SM FEW250
  FM222000 26008KT P6SM SCT250
  FM230100 VRB04KT P6SM FEW020 SCT250
  FM230500 VRB03KT P6SM BKN018
  FM231400 VRB03KT P6SM SCT020 SCT250


Raw METAR
KSAN 221351Z 00000KT 10SM FEW250 13/09 A3009 RMK AO2 SLP189 T01330094

TAF Board Legend

Hazard VFR MVFR IFR LIFR
Visibility (sm) >5 3≤X≤5 1≤X<3 <1
Ceiling (100 ft) >30 10≤X≤30 5≤X<10 <5
Wind Speed (kt) <10 10≤X<20 20≤X<30 ≥30
Wind Gust (kt) <15 15≤X<25 25≤X<35 ≥35
Weather No Wx Reported VCTS,-TS,-FZRA TS,FZRA +TS,+FZRA


Page loaded:  14:03 UTC  |   06:03 AM Pacific  |   07:03 AM Mountain  |   08:03 AM Central  |   09:03 AM Eastern

 

ADVISORIES

FORECASTS

FORECASTS

OBSERVATIONS

USER TOOLS

ABOUT US